Time;durP1;ratioP1;P1;durP2;ratioP2;P2;SDS_P1;SDS_P2;PMS_P1;PMS_P2;Temp;Humidity;BMP_temperature;BMP_pressure;BME280_temperature;BME280_humidity;BME280_pressure;Samples;Min_cycle;Max_cycle;Signal;HPM_P1;HPM_P2
2022/11/16 00:01:14;;;;;;;19.60;14.57;;;11.90;99.90;;;;;;5074965;28;20456;-85
2022/11/16 00:03:51;;;;;;;15.93;13.37;;;11.90;99.90;;;;;;5060548;28;20502;-84
2022/11/16 00:06:19;;;;;;;15.90;14.20;;;11.90;99.90;;;;;;5065457;28;20443;-84
2022/11/16 00:09:20;;;;;;;20.77;14.07;;;11.90;99.90;;;;;;5061317;28;20441;-82
2022/11/16 00:11:35;;;;;;;16.47;14.40;;;11.90;99.90;;;;;;5065857;28;20857;-84
2022/11/16 00:14:02;;;;;;;22.13;15.77;;;11.90;99.90;;;;;;5066514;28;20447;-84
2022/11/16 00:16:30;;;;;;;19.53;14.97;;;11.90;99.90;;;;;;5062510;28;20447;-84
2022/11/16 00:18:57;;;;;;;19.17;15.80;;;11.90;99.90;;;;;;5070254;28;20463;-84
2022/11/16 00:21:25;;;;;;;19.10;15.80;;;11.90;99.90;;;;;;5070725;28;20460;-83
2022/11/16 00:24:01;;;;;;;17.37;14.90;;;11.90;99.90;;;;;;5065941;28;20447;-85
2022/11/16 00:26:28;;;;;;;18.27;15.30;;;11.90;99.90;;;;;;5060631;28;20440;-86
2022/11/16 00:28:55;;;;;;;16.57;14.43;;;11.90;99.90;;;;;;5062074;28;20439;-86
2022/11/16 00:31:23;;;;;;;18.07;13.90;;;11.90;99.90;;;;;;5078635;28;20825;-86
2022/11/16 00:33:52;;;;;;;19.77;13.30;;;11.80;99.90;;;;;;5087294;28;20493;-87
2022/11/16 00:36:19;;;;;;;15.73;14.03;;;11.80;99.90;;;;;;5071297;28;20429;-86
2022/11/16 00:38:46;;;;;;;21.23;14.57;;;11.80;99.90;;;;;;5070784;28;20468;-86
2022/11/16 00:41:13;;;;;;;15.70;13.77;;;11.90;99.90;;;;;;5065558;28;20464;-86
2022/11/16 00:43:39;;;;;;;18.67;13.57;;;11.90;99.90;;;;;;5082091;28;20440;-86
2022/11/16 00:46:06;;;;;;;16.00;12.63;;;11.80;99.90;;;;;;5078688;28;20441;-86
2022/11/16 00:48:33;;;;;;;15.17;12.00;;;11.80;99.90;;;;;;5061468;28;20452;-85
2022/11/16 00:51:01;;;;;;;15.43;12.10;;;11.70;99.90;;;;;;5070964;28;20546;-86
2022/11/16 00:53:28;;;;;;;13.70;11.17;;;11.70;99.90;;;;;;5081265;28;20417;-86
2022/11/16 00:55:55;;;;;;;11.23;10.03;;;11.70;99.90;;;;;;5089819;28;20430;-86
2022/11/16 00:58:22;;;;;;;10.07;9.17;;;11.70;99.90;;;;;;5067391;28;20526;-84
2022/11/16 01:00:49;;;;;;;13.33;10.90;;;11.70;99.90;;;;;;5088116;28;20439;-86
2022/11/16 01:03:16;;;;;;;12.50;10.50;;;11.70;99.90;;;;;;5094437;28;20451;-86
2022/11/16 01:05:43;;;;;;;14.23;11.77;;;11.60;99.90;;;;;;5090008;28;20595;-87
2022/11/16 01:08:11;;;;;;;10.97;9.87;;;11.70;99.90;;;;;;5087425;28;20441;-85
2022/11/16 01:10:39;;;;;;;12.10;10.63;;;11.70;99.90;;;;;;5078788;28;20444;-86
2022/11/16 01:13:05;;;;;;;11.57;10.30;;;11.70;99.90;;;;;;5078819;28;20434;-85
2022/11/16 01:15:32;;;;;;;12.40;10.00;;;11.70;99.90;;;;;;5067619;28;20448;-86
2022/11/16 01:17:59;;;;;;;9.03;7.83;;;11.60;99.90;;;;;;5059092;28;20447;-85
2022/11/16 01:20:27;;;;;;;8.40;7.60;;;11.60;99.90;;;;;;5062003;28;20476;-85
2022/11/16 01:22:54;;;;;;;10.30;8.50;;;11.60;99.90;;;;;;5075844;28;20816;-85
2022/11/16 01:25:23;;;;;;;15.70;9.90;;;11.60;99.90;;;;;;5069688;28;20448;-85
2022/11/16 01:27:49;;;;;;;12.37;9.97;;;11.60;99.90;;;;;;5059583;28;20449;-86
2022/11/16 01:30:17;;;;;;;12.30;9.97;;;11.50;99.90;;;;;;5065486;28;20480;-86
2022/11/16 01:32:45;;;;;;;11.50;10.03;;;11.50;99.90;;;;;;5060132;28;20449;-86
2022/11/16 01:35:16;;;;;;;13.13;10.50;;;11.50;99.90;;;;;;5070755;28;20409;-87
2022/11/16 01:37:45;;;;;;;13.60;12.00;;;11.50;99.90;;;;;;5086277;28;20436;-86
2022/11/16 01:40:13;;;;;;;12.43;10.53;;;11.50;99.90;;;;;;5073948;28;20471;-86
2022/11/16 01:42:42;;;;;;;14.17;10.73;;;11.50;99.90;;;;;;5087994;28;20416;-86
2022/11/16 01:45:20;;;;;;;14.33;10.87;;;11.50;99.90;;;;;;5086060;28;20439;-85
2022/11/16 01:47:47;;;;;;;12.07;10.37;;;11.50;99.90;;;;;;5087949;28;20499;-86
2022/11/16 01:50:18;;;;;;;11.40;10.20;;;11.40;99.90;;;;;;5088091;28;20490;-86
2022/11/16 01:52:50;;;;;;;14.70;9.70;;;11.40;99.90;;;;;;5062408;28;20841;-86
2022/11/16 01:55:17;;;;;;;11.50;10.30;;;11.30;99.90;;;;;;5064858;28;20448;-85
2022/11/16 01:57:47;;;;;;;13.50;10.77;;;11.30;99.90;;;;;;5079766;28;20441;-86
2022/11/16 02:00:18;;;;;;;12.37;10.70;;;11.30;99.90;;;;;;5065468;28;20475;-85
2022/11/16 02:02:45;;;;;;;15.13;11.70;;;11.30;99.90;;;;;;5101059;28;20475;-87
2022/11/16 02:05:15;;;;;;;12.93;11.60;;;11.30;99.90;;;;;;5084459;28;20528;-86
2022/11/16 02:10:56;;;;;;;14.07;12.67;;;11.30;99.90;;;;;;5067321;28;20443;-87
2022/11/16 02:13:36;;;;;;;17.23;12.53;;;11.30;99.90;;;;;;5077483;28;20433;-87
2022/11/16 02:16:13;;;;;;;12.07;10.90;;;11.30;99.90;;;;;;5056399;28;20447;-86
2022/11/16 02:18:50;;;;;;;13.27;11.10;;;11.30;99.90;;;;;;5057491;28;20957;-87
2022/11/16 02:21:28;;;;;;;15.10;12.17;;;11.30;99.90;;;;;;5060968;28;21024;-88
2022/11/16 02:24:38;;;;;;;17.67;12.00;;;11.30;99.90;;;;;;5080752;28;20451;-87
2022/11/16 02:27:27;;;;;;;13.93;12.13;;;11.20;99.90;;;;;;5066451;28;20447;-87
2022/11/16 02:29:56;;;;;;;15.13;11.43;;;11.20;99.90;;;;;;5064495;28;20440;-85
2022/11/16 02:32:29;;;;;;;11.70;10.60;;;11.20;99.90;;;;;;5062358;28;20449;-86
2022/11/16 02:35:02;;;;;;;13.53;12.23;;;11.10;99.90;;;;;;5053911;28;20460;-86
2022/11/16 02:37:34;;;;;;;13.10;11.40;;;11.20;99.90;;;;;;5073901;28;20439;-86
2022/11/16 02:40:05;;;;;;;11.97;10.67;;;11.20;99.90;;;;;;5077475;28;20471;-86
2022/11/16 02:42:36;;;;;;;12.60;10.70;;;11.20;99.90;;;;;;5055166;28;20544;-85
2022/11/16 02:45:08;;;;;;;13.43;11.00;;;11.20;99.90;;;;;;5058425;28;20455;-85
2022/11/16 02:47:36;;;;;;;14.10;12.13;;;11.20;99.90;;;;;;5074293;28;20420;-86
2022/11/16 02:50:08;;;;;;;11.60;10.13;;;11.20;99.90;;;;;;5073769;28;20463;-86
2022/11/16 02:52:36;;;;;;;10.30;8.87;;;11.20;99.90;;;;;;5064437;28;20441;-85
2022/11/16 02:55:03;;;;;;;10.07;9.07;;;11.20;99.90;;;;;;5068673;28;20455;-85
2022/11/16 02:57:40;;;;;;;13.30;10.57;;;11.20;99.90;;;;;;5063879;28;20437;-86
2022/11/16 03:00:12;;;;;;;11.90;9.67;;;11.10;99.90;;;;;;5065080;28;20480;-86
2022/11/16 03:02:45;;;;;;;12.10;10.80;;;11.10;99.90;;;;;;5073346;28;20922;-85
2022/11/16 03:05:17;;;;;;;10.53;9.43;;;11.00;99.90;;;;;;5076854;28;20462;-85
2022/11/16 03:07:48;;;;;;;12.90;10.93;;;11.00;99.90;;;;;;5072276;28;20453;-87
2022/11/16 03:11:58;;;;;;;11.60;10.13;;;11.00;99.90;;;;;;5081149;28;20504;-86
2022/11/16 03:13:06;;;;;;;10.97;9.90;;;11.00;99.90;;;;;;5070032;28;20953;-85
2022/11/16 03:15:38;;;;;;;13.43;11.97;;;11.00;99.90;;;;;;5058250;28;20449;-85
2022/11/16 03:18:07;;;;;;;12.80;11.60;;;11.00;99.90;;;;;;5055866;28;20444;-85
2022/11/16 03:20:37;;;;;;;13.03;10.70;;;10.90;99.90;;;;;;5053562;28;20493;-85
2022/11/16 03:23:10;;;;;;;14.43;11.30;;;10.90;99.90;;;;;;5052463;28;20575;-84
2022/11/16 03:25:41;;;;;;;13.57;10.13;;;10.90;99.90;;;;;;5068135;28;20447;-86
2022/11/16 03:28:12;;;;;;;13.00;11.60;;;10.90;99.90;;;;;;5071906;28;20419;-86
2022/11/16 03:30:47;;;;;;;12.63;11.30;;;10.90;99.90;;;;;;5082821;28;20447;-85
2022/11/16 03:33:19;;;;;;;12.13;10.53;;;10.90;99.90;;;;;;5083918;28;20440;-85
2022/11/16 03:35:55;;;;;;;12.83;11.50;;;10.90;99.90;;;;;;5082259;28;20430;-85
2022/11/16 03:38:24;;;;;;;13.67;11.80;;;10.90;99.90;;;;;;5079698;28;20435;-85
2022/11/16 03:40:51;;;;;;;12.50;10.90;;;10.90;99.90;;;;;;5079758;28;20484;-86
2022/11/16 03:43:19;;;;;;;13.73;10.07;;;10.90;99.90;;;;;;5068948;28;20433;-85
2022/11/16 03:45:49;;;;;;;12.17;10.97;;;10.90;99.90;;;;;;5054386;28;20476;-85
2022/11/16 03:48:16;;;;;;;12.70;11.50;;;10.90;99.90;;;;;;5063561;28;20446;-85
2022/11/16 03:50:43;;;;;;;14.30;11.37;;;10.90;99.90;;;;;;5055233;28;20456;-85
2022/11/16 03:53:10;;;;;;;14.03;12.63;;;11.00;99.90;;;;;;5061854;28;20456;-85
2022/11/16 03:55:37;;;;;;;15.03;12.67;;;10.90;99.90;;;;;;5059735;28;20447;-85
2022/11/16 03:58:04;;;;;;;13.80;12.40;;;10.90;99.90;;;;;;5061260;28;20451;-85
2022/11/16 04:00:31;;;;;;;13.70;12.30;;;11.00;99.90;;;;;;5059622;28;20566;-85
2022/11/16 04:02:59;;;;;;;12.83;11.17;;;11.00;99.90;;;;;;5054824;28;20449;-86
2022/11/16 04:24:50;;;;;;;10.10;9.10;;;11.00;99.90;;;;;;5082405;28;20926;-86
2022/11/16 04:30:05;;;;;;;11.57;10.30;;;11.10;99.90;;;;;;5057624;28;20435;-86
2022/11/16 04:38:04;;;;;;;10.97;9.80;;;11.10;99.90;;;;;;5062481;28;20425;-86
2022/11/16 04:40:30;;;;;;;9.77;8.77;;;11.00;99.90;;;;;;5065634;28;20498;-85
2022/11/16 04:42:59;;;;;;;12.90;9.30;;;11.10;99.90;;;;;;5078759;28;20439;-86
2022/11/16 04:48:12;;;;;;;11.50;10.33;;;11.10;99.90;;;;;;5089975;28;20450;-87
2022/11/16 04:50:41;;;;;;;10.10;9.07;;;11.10;99.90;;;;;;5089604;28;20459;-87
2022/11/16 04:53:08;;;;;;;8.60;7.80;;;11.20;99.90;;;;;;5069351;28;20439;-87
2022/11/16 04:55:35;;;;;;;11.10;9.87;;;11.20;99.90;;;;;;5057901;28;20440;-86
2022/11/16 04:58:03;;;;;;;9.37;8.47;;;11.20;99.90;;;;;;5055112;28;20463;-86
2022/11/16 05:00:30;;;;;;;10.23;9.13;;;11.30;99.90;;;;;;5065426;28;20475;-86
2022/11/16 05:02:56;;;;;;;10.10;9.10;;;11.30;99.90;;;;;;5053078;28;20444;-85
2022/11/16 05:05:23;;;;;;;12.10;10.43;;;11.40;99.90;;;;;;5064008;28;20462;-85
2022/11/16 05:07:51;;;;;;;14.00;9.60;;;11.30;99.90;;;;;;5063997;28;20467;-85
2022/11/16 05:10:18;;;;;;;16.37;9.10;;;11.30;99.90;;;;;;5068956;28;20452;-85
2022/11/16 05:12:45;;;;;;;10.50;8.93;;;11.30;99.90;;;;;;5057042;28;20437;-84
2022/11/16 05:15:12;;;;;;;8.70;7.80;;;11.30;99.90;;;;;;5059382;28;20451;-86
2022/11/16 05:17:38;;;;;;;8.43;7.73;;;11.30;99.90;;;;;;5069056;28;20448;-85
2022/11/16 05:22:56;;;;;;;9.00;7.70;;;11.30;99.90;;;;;;5065107;28;20415;-84
2022/11/16 05:25:22;;;;;;;9.50;8.50;;;11.30;99.90;;;;;;5083629;28;20453;-85
2022/11/16 05:27:49;;;;;;;10.07;8.93;;;11.30;99.90;;;;;;5062393;28;20433;-85
2022/11/16 05:30:16;;;;;;;9.80;8.83;;;11.40;99.90;;;;;;5070310;28;20448;-85
2022/11/16 05:32:43;;;;;;;11.60;8.83;;;11.40;99.90;;;;;;5062699;28;20532;-85
2022/11/16 05:35:10;;;;;;;10.93;9.30;;;11.40;99.90;;;;;;5060419;28;20433;-86
2022/11/16 05:37:37;;;;;;;13.80;9.23;;;11.40;99.90;;;;;;5057047;28;20956;-86
2022/11/16 05:40:06;;;;;;;11.90;9.37;;;11.30;99.90;;;;;;5056818;28;20480;-85
2022/11/16 05:42:33;;;;;;;10.90;9.07;;;11.40;99.90;;;;;;5063716;28;20453;-85
2022/11/16 05:45:00;;;;;;;14.00;10.23;;;11.30;99.90;;;;;;5061068;28;20444;-86
2022/11/16 05:47:27;;;;;;;14.37;11.00;;;11.30;99.90;;;;;;5058187;28;20468;-85
2022/11/16 05:49:53;;;;;;;11.73;10.17;;;11.30;99.90;;;;;;5063233;28;20439;-85
2022/11/16 05:52:20;;;;;;;11.97;9.90;;;11.40;99.90;;;;;;5062381;28;20445;-86
2022/11/16 05:54:47;;;;;;;11.80;9.10;;;11.40;99.90;;;;;;5084778;28;20441;-85
2022/11/16 05:57:16;;;;;;;12.07;10.87;;;11.30;99.90;;;;;;5072225;28;20438;-85
2022/11/16 05:59:43;;;;;;;12.20;10.90;;;11.30;99.90;;;;;;5066371;28;20503;-86
2022/11/16 06:02:09;;;;;;;12.60;11.23;;;11.30;99.90;;;;;;5067289;28;20464;-86
2022/11/16 06:04:36;;;;;;;12.93;9.60;;;11.30;99.90;;;;;;5068147;28;20648;-86
2022/11/16 06:07:03;;;;;;;14.47;10.50;;;11.30;99.90;;;;;;5053736;28;20445;-86
2022/11/16 06:09:30;;;;;;;11.43;10.23;;;11.30;99.90;;;;;;5055949;28;20463;-86
2022/11/16 06:11:56;;;;;;;12.53;10.70;;;11.30;99.90;;;;;;5057979;28;20475;-86
2022/11/16 06:14:24;;;;;;;14.03;11.10;;;11.20;99.90;;;;;;5054494;28;20453;-86
2022/11/16 06:16:51;;;;;;;15.10;11.23;;;11.30;99.90;;;;;;5062414;28;20447;-88
2022/11/16 06:19:18;;;;;;;11.77;10.57;;;11.20;99.90;;;;;;5065810;28;20436;-85
2022/11/16 06:21:45;;;;;;;11.00;9.90;;;11.30;99.90;;;;;;5059198;28;20844;-84
2022/11/16 06:24:11;;;;;;;11.90;10.60;;;11.20;99.90;;;;;;5071271;28;20815;-85
2022/11/16 06:26:38;;;;;;;19.23;9.97;;;11.30;99.90;;;;;;5076653;28;20427;-84
2022/11/16 06:29:05;;;;;;;12.30;9.00;;;11.30;99.90;;;;;;5084113;28;20495;-83
2022/11/16 06:31:33;;;;;;;10.07;8.90;;;11.40;99.90;;;;;;5083589;28;20469;-84
2022/11/16 06:34:00;;;;;;;11.07;7.77;;;11.40;99.90;;;;;;5071251;28;20447;-84
2022/11/16 06:36:28;;;;;;;11.50;9.20;;;11.40;99.90;;;;;;5064814;28;20451;-85
2022/11/16 06:38:55;;;;;;;12.20;9.57;;;11.50;99.90;;;;;;5055595;28;20437;-85
2022/11/16 06:41:22;;;;;;;8.23;7.40;;;11.50;99.90;;;;;;5054567;28;20484;-85
2022/11/16 06:43:48;;;;;;;10.47;8.33;;;11.50;99.90;;;;;;5061681;28;20826;-85
2022/11/16 06:46:15;;;;;;;10.93;8.67;;;11.60;99.90;;;;;;5061897;28;20438;-83
2022/11/16 06:48:43;;;;;;;11.07;9.83;;;11.60;99.90;;;;;;5068599;28;20437;-85
2022/11/16 06:51:10;;;;;;;9.53;8.60;;;11.60;99.90;;;;;;5073810;28;20459;-84
2022/11/16 06:53:37;;;;;;;9.47;8.20;;;11.60;99.90;;;;;;5082990;28;20442;-84
2022/11/16 06:56:05;;;;;;;9.83;8.83;;;11.60;99.90;;;;;;5087509;28;20522;-84
2022/11/16 06:58:32;;;;;;;11.23;9.07;;;11.70;99.90;;;;;;5074694;28;20445;-84
2022/11/16 07:01:04;;;;;;;13.33;9.50;;;11.60;99.90;;;;;;5084466;28;20475;-83
2022/11/16 07:03:31;;;;;;;9.27;8.33;;;11.70;99.90;;;;;;5087975;28;20427;-84
2022/11/16 07:05:59;;;;;;;10.83;8.90;;;11.70;99.90;;;;;;5085061;28;20526;-88
2022/11/16 07:08:36;;;;;;;14.07;9.97;;;11.70;99.90;;;;;;5082033;28;20417;-81
2022/11/16 07:11:19;;;;;;;10.77;9.67;;;11.70;99.90;;;;;;5068052;28;20555;-84
2022/11/16 07:13:59;;;;;;;12.30;9.70;;;11.70;99.90;;;;;;5065364;28;20452;-83
2022/11/16 07:16:34;;;;;;;11.27;9.57;;;11.70;99.90;;;;;;5070047;28;20474;-84
2022/11/16 07:19:21;;;;;;;11.37;9.20;;;11.70;99.90;;;;;;5083538;28;20424;-84
2022/11/16 07:21:50;;;;;;;10.33;9.23;;;11.70;99.90;;;;;;5070011;28;20508;-84
2022/11/16 07:24:16;;;;;;;9.90;9.00;;;11.80;99.90;;;;;;5079099;28;20476;-84
2022/11/16 07:26:43;;;;;;;12.10;8.37;;;11.70;99.90;;;;;;5078533;28;20458;-82
2022/11/16 07:29:10;;;;;;;14.00;10.03;;;11.80;99.90;;;;;;5080486;28;20451;-82
2022/11/16 07:31:36;;;;;;;9.80;8.53;;;11.80;99.90;;;;;;5091875;28;20472;-82
2022/11/16 07:34:03;;;;;;;10.63;8.60;;;11.80;99.90;;;;;;5087611;28;20454;-82
2022/11/16 07:36:30;;;;;;;10.63;9.50;;;11.90;99.90;;;;;;5079187;28;20448;-84
2022/11/16 07:38:58;;;;;;;9.00;7.80;;;11.90;99.90;;;;;;5075235;28;20440;-83
2022/11/16 07:41:25;;;;;;;11.43;8.33;;;11.90;99.90;;;;;;5075748;28;20514;-83
2022/11/16 07:43:53;;;;;;;10.73;9.07;;;12.00;99.90;;;;;;5075674;28;20448;-83
2022/11/16 07:46:22;;;;;;;9.47;7.27;;;12.10;99.90;;;;;;5076383;28;20448;-83
2022/11/16 07:48:49;;;;;;;9.60;6.83;;;12.10;99.90;;;;;;5076582;28;20448;-83
2022/11/16 07:51:17;;;;;;;10.67;7.23;;;12.20;99.90;;;;;;5079699;28;20459;-82
2022/11/16 07:53:44;;;;;;;10.53;6.90;;;12.30;99.90;;;;;;5075505;28;20452;-86
2022/11/16 07:56:12;;;;;;;8.33;6.20;;;12.40;99.90;;;;;;5074515;28;20447;-84
2022/11/16 07:58:40;;;;;;;7.93;5.23;;;12.50;99.90;;;;;;5074878;28;20452;-84
2022/11/16 08:01:10;;;;;;;6.23;4.73;;;12.60;99.90;;;;;;5074914;28;20488;-85
2022/11/16 08:03:38;;;;;;;4.93;3.97;;;12.70;99.90;;;;;;5076024;28;20450;-82
2022/11/16 08:06:07;;;;;;;3.70;2.70;;;12.70;99.90;;;;;;5075632;28;20459;-83
2022/11/16 08:08:34;;;;;;;5.20;3.57;;;12.80;99.90;;;;;;5076376;28;20444;-82
2022/11/16 08:11:01;;;;;;;4.50;2.57;;;12.80;99.90;;;;;;5085301;28;20467;-83
2022/11/16 08:13:32;;;;;;;6.73;1.90;;;12.90;99.90;;;;;;5095143;28;20495;-82
2022/11/16 08:16:00;;;;;;;6.10;2.00;;;12.90;99.90;;;;;;5080735;28;21085;-83
2022/11/16 08:18:27;;;;;;;7.13;2.97;;;12.90;99.90;;;;;;5075142;28;20452;-83
2022/11/16 08:20:54;;;;;;;9.17;3.10;;;13.00;99.90;;;;;;5075206;28;20487;-83
2022/11/16 08:23:21;;;;;;;3.60;2.20;;;13.10;99.90;;;;;;5076194;28;20948;-84
2022/11/16 08:25:47;;;;;;;4.20;2.23;;;13.20;99.90;;;;;;5074957;28;20448;-83
2022/11/16 08:28:14;;;;;;;3.30;1.80;;;13.40;99.90;;;;;;5076023;28;20504;-83
2022/11/16 08:30:42;;;;;;;2.27;1.70;;;13.80;99.90;;;;;;5074606;28;20463;-83
2022/11/16 08:33:10;;;;;;;5.50;1.57;;;14.20;99.90;;;;;;5074757;28;20444;-84
2022/11/16 08:35:36;;;;;;;4.80;1.97;;;14.40;99.90;;;;;;5075979;28;20444;-83
2022/11/16 08:38:03;;;;;;;4.33;1.90;;;14.50;99.90;;;;;;5086139;28;20454;-84
2022/11/16 08:40:32;;;;;;;5.10;1.73;;;14.70;99.90;;;;;;5096632;28;20470;-82
2022/11/16 08:42:58;;;;;;;2.90;2.07;;;15.00;99.90;;;;;;5093119;28;20460;-83
2022/11/16 08:45:26;;;;;;;3.70;1.77;;;15.30;99.90;;;;;;5087847;28;20420;-84
2022/11/16 08:47:54;;;;;;;3.30;2.03;;;15.30;99.90;;;;;;5089384;28;20432;-83
2022/11/16 08:50:21;;;;;;;4.30;1.70;;;15.30;99.90;;;;;;5076730;28;20995;-83
2022/11/16 08:52:48;;;;;;;3.97;2.20;;;15.10;99.90;;;;;;5078574;28;20447;-83
2022/11/16 08:55:17;;;;;;;3.40;1.80;;;15.10;99.90;;;;;;5079402;28;20444;-83
2022/11/16 08:57:43;;;;;;;4.03;1.50;;;15.20;99.90;;;;;;5079620;28;20470;-82
2022/11/16 09:00:11;;;;;;;4.13;1.93;;;15.10;99.90;;;;;;5084437;28;20452;-82
2022/11/16 09:02:38;;;;;;;7.43;2.40;;;15.20;99.90;;;;;;5080820;28;20823;-82
2022/11/16 09:05:10;;;;;;;2.17;1.50;;;15.20;99.90;;;;;;5079903;28;20511;-83
2022/11/16 09:07:38;;;;;;;5.43;2.30;;;15.20;99.90;;;;;;5081049;28;20908;-83
2022/11/16 09:10:06;;;;;;;4.30;1.97;;;15.20;99.90;;;;;;5079259;28;20448;-83
2022/11/16 09:12:33;;;;;;;3.73;1.73;;;15.20;99.90;;;;;;5082777;28;20440;-82
2022/11/16 09:15:00;;;;;;;4.40;1.53;;;15.10;99.90;;;;;;5099214;28;20436;-80
2022/11/16 09:17:26;;;;;;;4.67;1.50;;;15.00;99.90;;;;;;5095262;28;20499;-83
2022/11/16 09:19:53;;;;;;;2.23;1.33;;;15.00;99.90;;;;;;5089177;28;20435;-81
2022/11/16 09:22:24;;;;;;;3.37;2.23;;;14.90;99.90;;;;;;5100071;28;20467;-81
2022/11/16 09:24:50;;;;;;;6.90;2.13;;;15.30;99.90;;;;;;5094391;28;20440;-82
2022/11/16 09:27:17;;;;;;;2.90;1.90;;;16.00;99.90;;;;;;5083981;28;20448;-82
2022/11/16 09:29:44;;;;;;;3.50;1.70;;;16.50;99.90;;;;;;5091631;28;20450;-82
2022/11/16 09:32:10;;;;;;;2.70;1.87;;;16.80;99.90;;;;;;5092011;28;20543;-82
2022/11/16 09:34:37;;;;;;;3.40;1.70;;;16.80;99.90;;;;;;5082855;28;20969;-83
2022/11/16 09:37:04;;;;;;;3.63;1.83;;;16.50;99.90;;;;;;5086953;28;20543;-82
2022/11/16 09:39:33;;;;;;;5.20;2.77;;;16.10;99.90;;;;;;5088718;28;20440;-82
2022/11/16 09:42:25;;;;;;;4.33;2.47;;;16.00;99.90;;;;;;5091428;28;20513;-81
2022/11/16 09:45:03;;;;;;;3.23;1.20;;;16.30;99.90;;;;;;5088396;28;20462;-82
2022/11/16 09:47:47;;;;;;;10.60;4.80;;;16.70;99.90;;;;;;5076777;28;20437;-86
2022/11/16 09:50:29;;;;;;;6.50;3.60;;;17.00;99.90;;;;;;5072863;28;20465;-82
2022/11/16 09:53:02;;;;;;;8.03;3.60;;;16.50;99.90;;;;;;5068720;28;20464;-83
2022/11/16 09:55:40;;;;;;;4.13;2.00;;;16.30;99.90;;;;;;5076043;28;20534;-83
2022/11/16 09:58:15;;;;;;;2.50;1.73;;;15.90;99.90;;;;;;5077959;28;20448;-83
2022/11/16 10:00:46;;;;;;;2.53;1.80;;;15.70;99.90;;;;;;5076119;28;20519;-83
2022/11/16 10:03:15;;;;;;;4.20;2.00;;;15.50;99.90;;;;;;5081631;28;20447;-83
2022/11/16 10:05:49;;;;;;;2.97;1.63;;;15.50;99.90;;;;;;5085083;28;20448;-83
2022/11/16 10:08:23;;;;;;;3.30;1.80;;;15.40;99.90;;;;;;5077121;28;20940;-83
2022/11/16 10:11:00;;;;;;;4.33;2.23;;;15.90;99.90;;;;;;5085536;28;20467;-83
2022/11/16 10:13:42;;;;;;;4.33;2.30;;;16.10;99.90;;;;;;5076938;28;20447;-83
2022/11/16 10:16:19;;;;;;;5.50;1.90;;;16.20;99.90;;;;;;5077676;28;20459;-83
2022/11/16 10:18:55;;;;;;;4.50;2.00;;;16.20;99.90;;;;;;5075918;28;20447;-83
2022/11/16 10:21:33;;;;;;;2.43;1.10;;;16.90;99.90;;;;;;5076006;28;20483;-83
2022/11/16 10:24:24;;;;;;;2.80;1.20;;;17.40;99.90;;;;;;5076143;28;20975;-83
2022/11/16 10:27:13;;;;;;;1.80;1.40;;;20.00;99.90;;;;;;5076178;28;20444;-83
2022/11/16 10:29:50;;;;;;;3.77;1.60;;;20.90;97.70;;;;;;5072179;28;20463;-83
2022/11/16 10:32:26;;;;;;;2.63;1.10;;;20.20;97.10;;;;;;5075528;28;20853;-82
2022/11/16 10:34:55;;;;;;;2.50;0.93;;;19.80;97.60;;;;;;5076553;28;20478;-81
2022/11/16 10:37:24;;;;;;;2.00;1.10;;;19.70;97.50;;;;;;5075405;28;20454;-82
2022/11/16 10:39:53;;;;;;;6.00;1.63;;;19.20;97.20;;;;;;5075152;28;20448;-83
2022/11/16 10:42:25;;;;;;;5.17;2.03;;;21.40;97.70;;;;;;5075310;28;20537;-83
2022/11/16 10:44:58;;;;;;;2.90;0.93;;;23.20;93.40;;;;;;5074947;28;20439;-83
2022/11/16 10:47:31;;;;;;;1.20;0.60;;;23.70;89.30;;;;;;5074963;28;20987;-83
2022/11/16 10:49:59;;;;;;;2.00;1.00;;;24.70;85.30;;;;;;5081655;28;20470;-83
2022/11/16 10:52:26;;;;;;;1.90;0.70;;;26.70;81.80;;;;;;5075966;28;20461;-83
2022/11/16 10:54:53;;;;;;;1.40;0.93;;;27.80;72.70;;;;;;5075419;28;20462;-83
2022/11/16 10:57:23;;;;;;;1.60;0.90;;;29.50;68.00;;;;;;5074661;28;20443;-83
2022/11/16 10:59:54;;;;;;;2.73;0.90;;;31.40;61.80;;;;;;5075070;28;20955;-84
2022/11/16 11:02:33;;;;;;;2.97;1.40;;;31.90;56.80;;;;;;5074742;28;20504;-83
2022/11/16 11:05:15;;;;;;;1.77;1.00;;;29.50;58.80;;;;;;5089500;28;20466;-83
2022/11/16 11:07:46;;;;;;;3.00;1.03;;;28.40;59.40;;;;;;5095653;28;20446;-83
2022/11/16 11:10:26;;;;;;;1.70;1.30;;;28.30;63.60;;;;;;5087199;28;20971;-83
2022/11/16 11:13:04;;;;;;;3.50;1.70;;;28.90;62.10;;;;;;5075300;28;20928;-83
2022/11/16 11:15:32;;;;;;;3.80;2.30;;;27.80;61.70;;;;;;5074235;28;20638;-83
2022/11/16 11:18:16;;;;;;;3.77;2.20;;;25.70;67.50;;;;;;5075814;28;20456;-84
2022/11/16 11:20:47;;;;;;;3.00;1.70;;;24.70;72.10;;;;;;5075090;28;20839;-82
2022/11/16 11:23:17;;;;;;;2.60;1.80;;;23.40;74.50;;;;;;5075501;28;20564;-83
2022/11/16 11:25:51;;;;;;;5.70;2.30;;;24.00;76.20;;;;;;5076148;28;20452;-83
2022/11/16 11:28:24;;;;;;;3.53;2.27;;;24.90;71.80;;;;;;5074285;28;20449;-82
2022/11/16 11:30:57;;;;;;;2.43;1.30;;;23.50;74.30;;;;;;5075284;28;20491;-83
2022/11/16 11:33:25;;;;;;;1.77;1.00;;;23.20;78.20;;;;;;5075881;28;20944;-82
2022/11/16 11:36:02;;;;;;;1.90;1.00;;;23.60;73.20;;;;;;5081608;28;20458;-84
2022/11/16 11:38:30;;;;;;;2.40;1.30;;;23.60;72.30;;;;;;5076311;28;20454;-84
2022/11/16 11:40:58;;;;;;;3.23;0.90;;;22.10;71.20;;;;;;5074474;28;20554;-83
2022/11/16 11:43:28;;;;;;;2.60;1.30;;;20.60;77.40;;;;;;5086752;28;20463;-82
2022/11/16 11:46:02;;;;;;;3.03;1.10;;;19.40;82.10;;;;;;5097089;28;20443;-82
2022/11/16 11:48:36;;;;;;;4.13;1.20;;;18.90;84.80;;;;;;5079555;28;20538;-83
2022/11/16 11:51:10;;;;;;;2.70;1.03;;;18.70;85.60;;;;;;5078675;28;20463;-83
2022/11/16 11:53:46;;;;;;;2.63;1.30;;;19.10;83.50;;;;;;5076844;28;20454;-84
2022/11/16 11:56:14;;;;;;;3.30;1.30;;;19.50;87.10;;;;;;5077860;28;20443;-83
2022/11/16 11:58:43;;;;;;;2.93;1.20;;;19.40;85.80;;;;;;5075545;28;20454;-83
2022/11/16 12:01:43;;;;;;;1.93;1.10;;;18.80;82.30;;;;;;5075756;28;20529;-82
2022/11/16 12:04:43;;;;;;;4.77;1.70;;;19.70;83.80;;;;;;5074629;28;20833;-82
2022/11/16 12:07:19;;;;;;;3.00;1.03;;;19.40;79.30;;;;;;5071080;28;20831;-84
2022/11/16 12:09:53;;;;;;;5.73;1.20;;;18.50;82.90;;;;;;5075101;28;20454;-84
2022/11/16 12:12:33;;;;;;;4.83;2.20;;;18.10;84.70;;;;;;5090189;28;20429;-82
2022/11/16 12:15:21;;;;;;;3.90;2.17;;;17.90;86.00;;;;;;5092693;28;20442;-83
2022/11/16 12:17:57;;;;;;;5.93;2.83;;;17.90;86.00;;;;;;5086725;28;20439;-83
2022/11/16 12:20:36;;;;;;;3.03;1.60;;;18.40;85.90;;;;;;5090662;28;20464;-83
2022/11/16 12:23:24;;;;;;;2.43;1.67;;;18.40;87.00;;;;;;5083935;28;20491;-83
2022/11/16 12:26:01;;;;;;;6.90;2.00;;;18.50;88.60;;;;;;5083490;28;20459;-84
2022/11/16 12:28:41;;;;;;;3.63;1.67;;;18.60;89.30;;;;;;5082781;28;20561;-84
2022/11/16 12:31:36;;;;;;;3.97;2.03;;;18.60;88.60;;;;;;5078711;28;20456;-82
2022/11/16 12:34:12;;;;;;;5.17;2.03;;;18.50;90.30;;;;;;5096849;28;20489;-81
2022/11/16 12:36:51;;;;;;;5.03;2.33;;;18.90;90.80;;;;;;5088441;28;20455;-83
2022/11/16 12:39:24;;;;;;;3.00;1.80;;;19.20;90.30;;;;;;5084213;28;20447;-85
2022/11/16 12:42:22;;;;;;;3.73;1.83;;;19.10;90.20;;;;;;5084077;28;20478;-83
2022/11/16 12:45:03;;;;;;;3.70;1.63;;;18.80;90.50;;;;;;5076956;28;20455;-83
2022/11/16 12:47:42;;;;;;;4.90;1.80;;;18.50;90.80;;;;;;5082571;28;20462;-83
2022/11/16 12:50:26;;;;;;;2.53;1.67;;;18.00;90.00;;;;;;5089524;28;20427;-81
2022/11/16 12:53:29;;;;;;;3.77;1.73;;;17.80;91.60;;;;;;5095680;28;20438;-84
2022/11/16 12:56:06;;;;;;;6.90;2.10;;;17.60;92.00;;;;;;5092969;28;20434;-82
2022/11/16 12:58:47;;;;;;;5.00;2.73;;;17.70;91.60;;;;;;5093692;28;20446;-84
2022/11/16 13:01:20;;;;;;;3.43;1.50;;;17.70;89.80;;;;;;5089938;28;20460;-84
2022/11/16 13:03:52;;;;;;;2.23;0.83;;;17.90;87.40;;;;;;5081532;28;20486;-84
2022/11/16 13:06:21;;;;;;;4.73;2.00;;;18.00;84.70;;;;;;5080413;28;20468;-83
2022/11/16 13:08:55;;;;;;;5.33;3.87;;;18.30;83.80;;;;;;5080739;28;20447;-83
2022/11/16 13:11:26;;;;;;;6.23;2.93;;;18.10;82.10;;;;;;5081677;28;20522;-84
2022/11/16 13:13:58;;;;;;;4.23;2.33;;;18.10;84.10;;;;;;5083325;28;20440;-84
2022/11/16 13:16:25;;;;;;;5.40;2.30;;;18.00;82.10;;;;;;5080780;28;20457;-84
2022/11/16 13:18:54;;;;;;;3.63;2.10;;;18.10;82.40;;;;;;5079624;28;20452;-85
2022/11/16 13:21:30;;;;;;;3.57;1.73;;;18.20;82.50;;;;;;5079898;28;20471;-84
2022/11/16 13:24:16;;;;;;;4.00;1.77;;;18.50;81.10;;;;;;5081567;28;20450;-84
2022/11/16 13:26:51;;;;;;;5.53;2.10;;;18.90;80.30;;;;;;5085731;28;20444;-84
2022/11/16 13:29:29;;;;;;;5.93;3.17;;;19.40;78.70;;;;;;5081687;28;20448;-83
2022/11/16 13:32:00;;;;;;;2.20;1.47;;;19.80;77.10;;;;;;5081109;28;21081;-84
2022/11/16 13:34:32;;;;;;;3.00;1.10;;;20.00;76.30;;;;;;5080230;28;20443;-84